sensor_id;sensor_type;location;lat;lon;timestamp;P1;durP1;ratioP1;P2;durP2;ratioP2
69150;SDS011;56257;52.196;13.870;2023-03-11T00:00:54;4.13;;;1.63;;
69150;SDS011;56257;52.196;13.870;2023-03-11T00:03:20;3.72;;;1.50;;
69150;SDS011;56257;52.196;13.870;2023-03-11T00:05:51;3.50;;;1.50;;
69150;SDS011;56257;52.196;13.870;2023-03-11T00:08:19;3.60;;;1.70;;
69150;SDS011;56257;52.196;13.870;2023-03-11T00:10:51;3.38;;;1.35;;
69150;SDS011;56257;52.196;13.870;2023-03-11T00:13:21;3.50;;;1.30;;
69150;SDS011;56257;52.196;13.870;2023-03-11T00:15:50;3.35;;;1.40;;
69150;SDS011;56257;52.196;13.870;2023-03-11T00:18:21;3.88;;;1.90;;
69150;SDS011;56257;52.196;13.870;2023-03-11T00:20:52;3.30;;;1.50;;
69150;SDS011;56257;52.196;13.870;2023-03-11T00:23:19;3.70;;;1.80;;
69150;SDS011;56257;52.196;13.870;2023-03-11T00:25:46;3.70;;;1.50;;
69150;SDS011;56257;52.196;13.870;2023-03-11T00:28:13;3.67;;;1.75;;
69150;SDS011;56257;52.196;13.870;2023-03-11T00:30:40;4.05;;;1.95;;
69150;SDS011;56257;52.196;13.870;2023-03-11T00:33:09;3.95;;;2.00;;
69150;SDS011;56257;52.196;13.870;2023-03-11T00:35:36;3.63;;;1.67;;
69150;SDS011;56257;52.196;13.870;2023-03-11T00:38:04;3.40;;;1.43;;
69150;SDS011;56257;52.196;13.870;2023-03-11T00:40:32;3.90;;;1.73;;
69150;SDS011;56257;52.196;13.870;2023-03-11T00:43:01;3.53;;;1.60;;
69150;SDS011;56257;52.196;13.870;2023-03-11T00:45:28;3.75;;;1.55;;
69150;SDS011;56257;52.196;13.870;2023-03-11T00:47:54;3.88;;;1.92;;
69150;SDS011;56257;52.196;13.870;2023-03-11T00:50:23;3.87;;;1.70;;
69150;SDS011;56257;52.196;13.870;2023-03-11T00:52:51;3.45;;;1.40;;
69150;SDS011;56257;52.196;13.870;2023-03-11T00:55:20;3.63;;;1.70;;
69150;SDS011;56257;52.196;13.870;2023-03-11T00:57:52;3.72;;;1.70;;
69150;SDS011;56257;52.196;13.870;2023-03-11T01:00:20;4.22;;;1.50;;
69150;SDS011;56257;52.196;13.870;2023-03-11T01:02:48;3.50;;;1.40;;
69150;SDS011;56257;52.196;13.870;2023-03-11T01:05:14;3.72;;;1.42;;
69150;SDS011;56257;52.196;13.870;2023-03-11T01:07:41;4.20;;;2.10;;
69150;SDS011;56257;52.196;13.870;2023-03-11T01:10:08;4.45;;;1.88;;
69150;SDS011;56257;52.196;13.870;2023-03-11T01:12:35;3.80;;;1.45;;
69150;SDS011;56257;52.196;13.870;2023-03-11T01:15:02;3.30;;;1.50;;
69150;SDS011;56257;52.196;13.870;2023-03-11T01:17:29;3.33;;;1.20;;
69150;SDS011;56257;52.196;13.870;2023-03-11T01:19:56;3.80;;;1.55;;
69150;SDS011;56257;52.196;13.870;2023-03-11T01:22:22;3.22;;;1.30;;
69150;SDS011;56257;52.196;13.870;2023-03-11T01:24:49;3.33;;;1.30;;
69150;SDS011;56257;52.196;13.870;2023-03-11T01:27:15;3.47;;;1.50;;
69150;SDS011;56257;52.196;13.870;2023-03-11T01:29:42;3.63;;;1.35;;
69150;SDS011;56257;52.196;13.870;2023-03-11T01:32:09;3.80;;;1.55;;
69150;SDS011;56257;52.196;13.870;2023-03-11T01:34:36;3.58;;;1.38;;
69150;SDS011;56257;52.196;13.870;2023-03-11T01:37:03;4.07;;;1.70;;
69150;SDS011;56257;52.196;13.870;2023-03-11T01:39:29;3.43;;;1.30;;
69150;SDS011;56257;52.196;13.870;2023-03-11T01:41:56;2.90;;;1.10;;
69150;SDS011;56257;52.196;13.870;2023-03-11T01:44:22;4.05;;;1.50;;
69150;SDS011;56257;52.196;13.870;2023-03-11T01:49:19;2.97;;;1.17;;
69150;SDS011;56257;52.196;13.870;2023-03-11T01:51:47;3.90;;;1.60;;
69150;SDS011;56257;52.196;13.870;2023-03-11T01:54:20;3.00;;;1.20;;
69150;SDS011;56257;52.196;13.870;2023-03-11T01:56:52;3.38;;;1.45;;
69150;SDS011;56257;52.196;13.870;2023-03-11T01:59:21;3.25;;;1.20;;
69150;SDS011;56257;52.196;13.870;2023-03-11T02:02:00;3.53;;;1.25;;
69150;SDS011;56257;52.196;13.870;2023-03-11T02:04:30;3.30;;;1.30;;
69150;SDS011;56257;52.196;13.870;2023-03-11T02:06:59;3.40;;;1.50;;
69150;SDS011;56257;52.196;13.870;2023-03-11T02:09:27;3.35;;;1.40;;
69150;SDS011;56257;52.196;13.870;2023-03-11T02:11:53;3.40;;;1.30;;
69150;SDS011;56257;52.196;13.870;2023-03-11T02:14:21;3.15;;;1.27;;
69150;SDS011;56257;52.196;13.870;2023-03-11T02:16:48;3.57;;;1.30;;
69150;SDS011;56257;52.196;13.870;2023-03-11T02:21:56;3.83;;;1.55;;
69150;SDS011;56257;52.196;13.870;2023-03-11T02:24:30;3.20;;;1.17;;
69150;SDS011;56257;52.196;13.870;2023-03-11T02:27:07;3.20;;;1.30;;
69150;SDS011;56257;52.196;13.870;2023-03-11T02:29:35;3.47;;;1.23;;
69150;SDS011;56257;52.196;13.870;2023-03-11T02:32:07;3.30;;;1.25;;
69150;SDS011;56257;52.196;13.870;2023-03-11T02:34:36;3.88;;;1.60;;
69150;SDS011;56257;52.196;13.870;2023-03-11T02:37:08;3.42;;;1.50;;
69150;SDS011;56257;52.196;13.870;2023-03-11T02:39:37;3.08;;;1.30;;
69150;SDS011;56257;52.196;13.870;2023-03-11T02:44:45;3.38;;;1.50;;
69150;SDS011;56257;52.196;13.870;2023-03-11T02:47:13;3.67;;;1.50;;
69150;SDS011;56257;52.196;13.870;2023-03-11T02:49:40;2.90;;;1.20;;
69150;SDS011;56257;52.196;13.870;2023-03-11T02:52:07;3.13;;;1.20;;
69150;SDS011;56257;52.196;13.870;2023-03-11T02:54:33;3.20;;;1.30;;
69150;SDS011;56257;52.196;13.870;2023-03-11T02:57:00;3.30;;;1.50;;
69150;SDS011;56257;52.196;13.870;2023-03-11T02:59:26;3.25;;;1.27;;
69150;SDS011;56257;52.196;13.870;2023-03-11T03:01:53;3.28;;;1.30;;
69150;SDS011;56257;52.196;13.870;2023-03-11T03:04:19;3.47;;;1.40;;
69150;SDS011;56257;52.196;13.870;2023-03-11T03:06:46;4.23;;;1.33;;
69150;SDS011;56257;52.196;13.870;2023-03-11T03:09:13;3.17;;;1.27;;
69150;SDS011;56257;52.196;13.870;2023-03-11T03:11:39;3.13;;;1.40;;
69150;SDS011;56257;52.196;13.870;2023-03-11T03:14:06;3.03;;;1.20;;
69150;SDS011;56257;52.196;13.870;2023-03-11T03:16:32;3.35;;;1.20;;
69150;SDS011;56257;52.196;13.870;2023-03-11T03:18:59;3.13;;;1.20;;
69150;SDS011;56257;52.196;13.870;2023-03-11T03:21:26;3.38;;;1.45;;
69150;SDS011;56257;52.196;13.870;2023-03-11T03:23:52;3.10;;;1.10;;
69150;SDS011;56257;52.196;13.870;2023-03-11T03:26:19;3.38;;;1.10;;
69150;SDS011;56257;52.196;13.870;2023-03-11T03:28:45;3.15;;;1.10;;
69150;SDS011;56257;52.196;13.870;2023-03-11T03:31:12;2.97;;;1.20;;
69150;SDS011;56257;52.196;13.870;2023-03-11T03:33:39;3.20;;;1.00;;
69150;SDS011;56257;52.196;13.870;2023-03-11T03:36:10;3.00;;;1.20;;
69150;SDS011;56257;52.196;13.870;2023-03-11T03:38:38;3.22;;;1.05;;
69150;SDS011;56257;52.196;13.870;2023-03-11T03:41:04;3.00;;;1.25;;
69150;SDS011;56257;52.196;13.870;2023-03-11T03:43:31;2.87;;;1.10;;
69150;SDS011;56257;52.196;13.870;2023-03-11T03:45:58;3.50;;;1.30;;
69150;SDS011;56257;52.196;13.870;2023-03-11T03:48:27;3.70;;;1.30;;
69150;SDS011;56257;52.196;13.870;2023-03-11T03:50:55;3.00;;;1.05;;
69150;SDS011;56257;52.196;13.870;2023-03-11T03:53:21;3.00;;;1.30;;
69150;SDS011;56257;52.196;13.870;2023-03-11T03:55:48;3.10;;;1.13;;
69150;SDS011;56257;52.196;13.870;2023-03-11T03:58:16;3.38;;;1.30;;
69150;SDS011;56257;52.196;13.870;2023-03-11T04:00:42;2.90;;;1.00;;
69150;SDS011;56257;52.196;13.870;2023-03-11T04:03:09;3.30;;;1.10;;
69150;SDS011;56257;52.196;13.870;2023-03-11T04:05:35;2.75;;;1.13;;
69150;SDS011;56257;52.196;13.870;2023-03-11T04:08:02;3.20;;;1.20;;
69150;SDS011;56257;52.196;13.870;2023-03-11T04:10:29;2.95;;;0.98;;
69150;SDS011;56257;52.196;13.870;2023-03-11T04:12:55;3.03;;;1.13;;
69150;SDS011;56257;52.196;13.870;2023-03-11T04:15:22;3.10;;;1.10;;
69150;SDS011;56257;52.196;13.870;2023-03-11T04:17:48;2.97;;;1.10;;
69150;SDS011;56257;52.196;13.870;2023-03-11T04:20:15;3.40;;;1.20;;
69150;SDS011;56257;52.196;13.870;2023-03-11T04:22:42;3.25;;;1.20;;
69150;SDS011;56257;52.196;13.870;2023-03-11T04:25:08;3.25;;;1.00;;
69150;SDS011;56257;52.196;13.870;2023-03-11T04:27:35;2.80;;;0.90;;
69150;SDS011;56257;52.196;13.870;2023-03-11T04:30:03;2.90;;;1.10;;
69150;SDS011;56257;52.196;13.870;2023-03-11T04:32:30;3.37;;;1.03;;
69150;SDS011;56257;52.196;13.870;2023-03-11T04:34:57;3.03;;;1.00;;
69150;SDS011;56257;52.196;13.870;2023-03-11T04:37:27;3.10;;;0.98;;
69150;SDS011;56257;52.196;13.870;2023-03-11T04:39:54;3.42;;;1.20;;
69150;SDS011;56257;52.196;13.870;2023-03-11T04:42:21;2.90;;;1.00;;
69150;SDS011;56257;52.196;13.870;2023-03-11T04:44:47;2.90;;;1.10;;
69150;SDS011;56257;52.196;13.870;2023-03-11T04:47:14;3.08;;;1.00;;
69150;SDS011;56257;52.196;13.870;2023-03-11T04:49:40;3.10;;;1.10;;
69150;SDS011;56257;52.196;13.870;2023-03-11T04:52:07;3.03;;;1.00;;
69150;SDS011;56257;52.196;13.870;2023-03-11T04:54:33;3.05;;;1.00;;
69150;SDS011;56257;52.196;13.870;2023-03-11T04:57:00;2.93;;;1.10;;
69150;SDS011;56257;52.196;13.870;2023-03-11T04:59:27;3.70;;;0.88;;
69150;SDS011;56257;52.196;13.870;2023-03-11T05:01:53;3.08;;;1.00;;
69150;SDS011;56257;52.196;13.870;2023-03-11T05:04:20;3.15;;;1.08;;
69150;SDS011;56257;52.196;13.870;2023-03-11T05:06:47;3.10;;;1.20;;
69150;SDS011;56257;52.196;13.870;2023-03-11T05:09:16;3.00;;;0.97;;
69150;SDS011;56257;52.196;13.870;2023-03-11T05:11:42;3.17;;;1.10;;
69150;SDS011;56257;52.196;13.870;2023-03-11T05:14:09;3.00;;;1.10;;
69150;SDS011;56257;52.196;13.870;2023-03-11T05:16:36;2.80;;;0.90;;
69150;SDS011;56257;52.196;13.870;2023-03-11T05:19:02;3.08;;;1.20;;
69150;SDS011;56257;52.196;13.870;2023-03-11T05:21:49;2.90;;;1.00;;
69150;SDS011;56257;52.196;13.870;2023-03-11T05:24:15;3.13;;;1.13;;
69150;SDS011;56257;52.196;13.870;2023-03-11T05:26:42;2.85;;;1.20;;
69150;SDS011;56257;52.196;13.870;2023-03-11T05:29:08;2.90;;;0.98;;
69150;SDS011;56257;52.196;13.870;2023-03-11T05:31:35;2.80;;;0.90;;
69150;SDS011;56257;52.196;13.870;2023-03-11T05:34:02;2.87;;;0.90;;
69150;SDS011;56257;52.196;13.870;2023-03-11T05:36:28;3.15;;;1.08;;
69150;SDS011;56257;52.196;13.870;2023-03-11T05:38:55;2.75;;;0.98;;
69150;SDS011;56257;52.196;13.870;2023-03-11T05:41:21;2.85;;;0.90;;
69150;SDS011;56257;52.196;13.870;2023-03-11T05:43:48;3.03;;;1.00;;
69150;SDS011;56257;52.196;13.870;2023-03-11T05:46:14;2.60;;;0.70;;
69150;SDS011;56257;52.196;13.870;2023-03-11T05:48:41;2.83;;;0.90;;
69150;SDS011;56257;52.196;13.870;2023-03-11T05:51:08;2.80;;;1.08;;
69150;SDS011;56257;52.196;13.870;2023-03-11T05:53:36;2.60;;;0.88;;
69150;SDS011;56257;52.196;13.870;2023-03-11T05:56:03;3.08;;;1.10;;
69150;SDS011;56257;52.196;13.870;2023-03-11T05:58:30;2.83;;;1.10;;
69150;SDS011;56257;52.196;13.870;2023-03-11T06:00:57;2.90;;;1.02;;
69150;SDS011;56257;52.196;13.870;2023-03-11T06:03:27;2.95;;;1.00;;
69150;SDS011;56257;52.196;13.870;2023-03-11T06:05:53;2.50;;;0.90;;
69150;SDS011;56257;52.196;13.870;2023-03-11T06:08:20;2.55;;;0.90;;
69150;SDS011;56257;52.196;13.870;2023-03-11T06:10:47;2.90;;;0.90;;
69150;SDS011;56257;52.196;13.870;2023-03-11T06:13:14;2.67;;;0.88;;
69150;SDS011;56257;52.196;13.870;2023-03-11T06:15:42;2.90;;;1.05;;
69150;SDS011;56257;52.196;13.870;2023-03-11T06:18:09;2.80;;;0.90;;
69150;SDS011;56257;52.196;13.870;2023-03-11T06:20:36;2.70;;;0.80;;
69150;SDS011;56257;52.196;13.870;2023-03-11T06:23:03;2.90;;;0.87;;
69150;SDS011;56257;52.196;13.870;2023-03-11T06:25:29;2.88;;;1.00;;
69150;SDS011;56257;52.196;13.870;2023-03-11T06:27:56;2.95;;;0.90;;
69150;SDS011;56257;52.196;13.870;2023-03-11T06:30:23;3.00;;;1.00;;
69150;SDS011;56257;52.196;13.870;2023-03-11T06:32:50;3.22;;;1.05;;
69150;SDS011;56257;52.196;13.870;2023-03-11T06:35:17;2.50;;;0.80;;
69150;SDS011;56257;52.196;13.870;2023-03-11T06:37:43;2.58;;;0.80;;
69150;SDS011;56257;52.196;13.870;2023-03-11T06:40:10;3.00;;;0.95;;
69150;SDS011;56257;52.196;13.870;2023-03-11T06:42:37;2.70;;;1.00;;
69150;SDS011;56257;52.196;13.870;2023-03-11T06:45:04;3.33;;;1.05;;
69150;SDS011;56257;52.196;13.870;2023-03-11T06:47:31;3.33;;;0.80;;
69150;SDS011;56257;52.196;13.870;2023-03-11T06:49:58;3.03;;;1.13;;
69150;SDS011;56257;52.196;13.870;2023-03-11T06:52:24;2.83;;;0.90;;
69150;SDS011;56257;52.196;13.870;2023-03-11T06:54:51;2.70;;;0.80;;
69150;SDS011;56257;52.196;13.870;2023-03-11T06:57:18;2.60;;;0.80;;
69150;SDS011;56257;52.196;13.870;2023-03-11T06:59:44;2.70;;;0.87;;
69150;SDS011;56257;52.196;13.870;2023-03-11T07:02:11;2.85;;;0.82;;
69150;SDS011;56257;52.196;13.870;2023-03-11T07:04:38;2.85;;;0.90;;
69150;SDS011;56257;52.196;13.870;2023-03-11T07:07:05;2.40;;;0.70;;
69150;SDS011;56257;52.196;13.870;2023-03-11T07:09:32;2.80;;;1.00;;
69150;SDS011;56257;52.196;13.870;2023-03-11T07:11:58;2.40;;;0.70;;
69150;SDS011;56257;52.196;13.870;2023-03-11T07:14:25;2.97;;;0.90;;
69150;SDS011;56257;52.196;13.870;2023-03-11T07:16:51;2.80;;;0.90;;
69150;SDS011;56257;52.196;13.870;2023-03-11T07:19:18;3.13;;;0.90;;
69150;SDS011;56257;52.196;13.870;2023-03-11T07:21:46;2.85;;;0.90;;
69150;SDS011;56257;52.196;13.870;2023-03-11T07:24:13;2.70;;;0.80;;
69150;SDS011;56257;52.196;13.870;2023-03-11T07:26:40;2.83;;;0.95;;
69150;SDS011;56257;52.196;13.870;2023-03-11T07:29:09;2.90;;;1.00;;
69150;SDS011;56257;52.196;13.870;2023-03-11T07:31:36;2.83;;;0.80;;
69150;SDS011;56257;52.196;13.870;2023-03-11T07:34:04;2.97;;;1.10;;
69150;SDS011;56257;52.196;13.870;2023-03-11T07:36:37;2.63;;;0.70;;
69150;SDS011;56257;52.196;13.870;2023-03-11T07:39:05;2.70;;;0.70;;
69150;SDS011;56257;52.196;13.870;2023-03-11T07:41:33;2.70;;;0.88;;
69150;SDS011;56257;52.196;13.870;2023-03-11T07:44:01;2.72;;;0.60;;
69150;SDS011;56257;52.196;13.870;2023-03-11T07:46:28;2.80;;;0.90;;
69150;SDS011;56257;52.196;13.870;2023-03-11T07:48:56;2.77;;;0.70;;
69150;SDS011;56257;52.196;13.870;2023-03-11T07:51:24;2.90;;;1.00;;
69150;SDS011;56257;52.196;13.870;2023-03-11T07:53:52;2.70;;;0.80;;
69150;SDS011;56257;52.196;13.870;2023-03-11T07:56:21;2.65;;;0.82;;
69150;SDS011;56257;52.196;13.870;2023-03-11T07:58:49;2.67;;;0.90;;
69150;SDS011;56257;52.196;13.870;2023-03-11T08:01:20;2.60;;;0.80;;
69150;SDS011;56257;52.196;13.870;2023-03-11T08:03:48;2.72;;;0.88;;
69150;SDS011;56257;52.196;13.870;2023-03-11T08:06:17;2.70;;;0.90;;
69150;SDS011;56257;52.196;13.870;2023-03-11T08:08:46;2.50;;;0.80;;
69150;SDS011;56257;52.196;13.870;2023-03-11T08:11:13;2.70;;;0.90;;
69150;SDS011;56257;52.196;13.870;2023-03-11T08:13:41;2.90;;;0.93;;
69150;SDS011;56257;52.196;13.870;2023-03-11T08:16:10;2.80;;;1.10;;
69150;SDS011;56257;52.196;13.870;2023-03-11T08:18:38;2.47;;;0.80;;
69150;SDS011;56257;52.196;13.870;2023-03-11T08:21:06;2.60;;;0.80;;
69150;SDS011;56257;52.196;13.870;2023-03-11T08:23:33;3.00;;;1.42;;
69150;SDS011;56257;52.196;13.870;2023-03-11T08:26:03;2.60;;;0.80;;
69150;SDS011;56257;52.196;13.870;2023-03-11T08:28:31;2.72;;;0.82;;
69150;SDS011;56257;52.196;13.870;2023-03-11T08:30:58;2.90;;;0.70;;
69150;SDS011;56257;52.196;13.870;2023-03-11T08:33:25;2.58;;;0.63;;
69150;SDS011;56257;52.196;13.870;2023-03-11T08:35:53;2.90;;;0.88;;
69150;SDS011;56257;52.196;13.870;2023-03-11T08:38:20;2.63;;;0.90;;
69150;SDS011;56257;52.196;13.870;2023-03-11T08:40:46;2.55;;;0.85;;
69150;SDS011;56257;52.196;13.870;2023-03-11T08:43:13;2.90;;;0.90;;
69150;SDS011;56257;52.196;13.870;2023-03-11T08:45:40;2.65;;;0.70;;
69150;SDS011;56257;52.196;13.870;2023-03-11T08:48:08;2.67;;;0.70;;
69150;SDS011;56257;52.196;13.870;2023-03-11T08:50:36;2.60;;;0.77;;
69150;SDS011;56257;52.196;13.870;2023-03-11T08:53:18;2.75;;;0.75;;
69150;SDS011;56257;52.196;13.870;2023-03-11T08:55:45;2.78;;;0.77;;
69150;SDS011;56257;52.196;13.870;2023-03-11T08:58:12;2.60;;;0.80;;
69150;SDS011;56257;52.196;13.870;2023-03-11T09:00:40;2.40;;;0.73;;
69150;SDS011;56257;52.196;13.870;2023-03-11T09:03:06;2.43;;;0.70;;
69150;SDS011;56257;52.196;13.870;2023-03-11T09:05:33;2.78;;;0.70;;
69150;SDS011;56257;52.196;13.870;2023-03-11T09:08:00;2.53;;;0.70;;
69150;SDS011;56257;52.196;13.870;2023-03-11T09:10:30;2.40;;;0.60;;
69150;SDS011;56257;52.196;13.870;2023-03-11T09:12:57;2.67;;;0.80;;
69150;SDS011;56257;52.196;13.870;2023-03-11T09:15:24;2.70;;;0.80;;
69150;SDS011;56257;52.196;13.870;2023-03-11T09:17:50;3.05;;;0.90;;
69150;SDS011;56257;52.196;13.870;2023-03-11T09:20:18;2.85;;;0.88;;
69150;SDS011;56257;52.196;13.870;2023-03-11T09:22:44;2.53;;;0.77;;
69150;SDS011;56257;52.196;13.870;2023-03-11T09:25:11;2.90;;;0.98;;
69150;SDS011;56257;52.196;13.870;2023-03-11T09:27:38;2.60;;;0.70;;
69150;SDS011;56257;52.196;13.870;2023-03-11T09:30:07;2.67;;;0.70;;
69150;SDS011;56257;52.196;13.870;2023-03-11T09:32:34;2.90;;;1.00;;
69150;SDS011;56257;52.196;13.870;2023-03-11T09:35:01;2.60;;;0.70;;
69150;SDS011;56257;52.196;13.870;2023-03-11T09:37:28;2.53;;;0.90;;
69150;SDS011;56257;52.196;13.870;2023-03-11T09:39:55;2.43;;;0.60;;
69150;SDS011;56257;52.196;13.870;2023-03-11T09:43:10;2.40;;;0.60;;
69150;SDS011;56257;52.196;13.870;2023-03-11T09:45:22;2.88;;;0.93;;
69150;SDS011;56257;52.196;13.870;2023-03-11T09:50:57;2.63;;;0.70;;
69150;SDS011;56257;52.196;13.870;2023-03-11T09:53:40;2.50;;;0.80;;
69150;SDS011;56257;52.196;13.870;2023-03-11T09:56:12;2.65;;;0.85;;
69150;SDS011;56257;52.196;13.870;2023-03-11T09:58:47;3.33;;;0.93;;
69150;SDS011;56257;52.196;13.870;2023-03-11T10:01:26;2.75;;;0.75;;
69150;SDS011;56257;52.196;13.870;2023-03-11T10:03:56;3.28;;;1.00;;
69150;SDS011;56257;52.196;13.870;2023-03-11T10:06:27;2.77;;;0.90;;
69150;SDS011;56257;52.196;13.870;2023-03-11T10:12:07;2.75;;;0.90;;
69150;SDS011;56257;52.196;13.870;2023-03-11T10:20:21;2.50;;;0.70;;
69150;SDS011;56257;52.196;13.870;2023-03-11T10:28:35;2.58;;;0.63;;
69150;SDS011;56257;52.196;13.870;2023-03-11T10:31:11;2.53;;;0.70;;
69150;SDS011;56257;52.196;13.870;2023-03-11T10:33:53;2.50;;;0.80;;
69150;SDS011;56257;52.196;13.870;2023-03-11T10:36:23;2.92;;;0.77;;
69150;SDS011;56257;52.196;13.870;2023-03-11T10:38:52;2.70;;;0.90;;
69150;SDS011;56257;52.196;13.870;2023-03-11T10:41:23;2.72;;;0.90;;
69150;SDS011;56257;52.196;13.870;2023-03-11T10:46:38;2.67;;;1.00;;
69150;SDS011;56257;52.196;13.870;2023-03-11T10:49:10;2.42;;;0.70;;
69150;SDS011;56257;52.196;13.870;2023-03-11T10:51:39;2.50;;;0.80;;
69150;SDS011;56257;52.196;13.870;2023-03-11T10:54:06;2.70;;;0.90;;
69150;SDS011;56257;52.196;13.870;2023-03-11T10:56:34;2.65;;;0.80;;
69150;SDS011;56257;52.196;13.870;2023-03-11T10:59:02;3.33;;;0.73;;
69150;SDS011;56257;52.196;13.870;2023-03-11T11:01:30;2.60;;;0.98;;
69150;SDS011;56257;52.196;13.870;2023-03-11T11:03:58;2.75;;;0.80;;
69150;SDS011;56257;52.196;13.870;2023-03-11T11:06:35;2.50;;;0.70;;
69150;SDS011;56257;52.196;13.870;2023-03-11T11:09:23;2.92;;;0.95;;
69150;SDS011;56257;52.196;13.870;2023-03-11T11:12:02;2.50;;;0.53;;
69150;SDS011;56257;52.196;13.870;2023-03-11T11:14:41;2.55;;;0.70;;
69150;SDS011;56257;52.196;13.870;2023-03-11T11:17:21;2.60;;;0.70;;
69150;SDS011;56257;52.196;13.870;2023-03-11T11:19:50;2.50;;;0.68;;
69150;SDS011;56257;52.196;13.870;2023-03-11T11:22:18;2.50;;;0.70;;
69150;SDS011;56257;52.196;13.870;2023-03-11T11:24:47;3.47;;;0.60;;
69150;SDS011;56257;52.196;13.870;2023-03-11T11:27:17;3.25;;;0.80;;
69150;SDS011;56257;52.196;13.870;2023-03-11T11:29:47;2.65;;;0.75;;
69150;SDS011;56257;52.196;13.870;2023-03-11T11:32:48;2.30;;;0.60;;
69150;SDS011;56257;52.196;13.870;2023-03-11T11:35:19;2.53;;;0.80;;
69150;SDS011;56257;52.196;13.870;2023-03-11T11:37:48;3.13;;;0.80;;
69150;SDS011;56257;52.196;13.870;2023-03-11T11:40:27;2.63;;;0.68;;
69150;SDS011;56257;52.196;13.870;2023-03-11T11:48:02;2.78;;;0.90;;
69150;SDS011;56257;52.196;13.870;2023-03-11T11:50:42;2.60;;;0.60;;
69150;SDS011;56257;52.196;13.870;2023-03-11T11:55:38;2.50;;;0.80;;
69150;SDS011;56257;52.196;13.870;2023-03-11T11:58:09;2.33;;;0.75;;
69150;SDS011;56257;52.196;13.870;2023-03-11T12:00:41;2.72;;;0.90;;
69150;SDS011;56257;52.196;13.870;2023-03-11T12:03:19;2.80;;;0.73;;
69150;SDS011;56257;52.196;13.870;2023-03-11T12:06:30;3.33;;;0.60;;
69150;SDS011;56257;52.196;13.870;2023-03-11T12:08:59;2.70;;;0.80;;
69150;SDS011;56257;52.196;13.870;2023-03-11T12:11:28;2.30;;;0.60;;
69150;SDS011;56257;52.196;13.870;2023-03-11T12:16:50;2.67;;;0.77;;
69150;SDS011;56257;52.196;13.870;2023-03-11T12:19:29;2.60;;;0.73;;
69150;SDS011;56257;52.196;13.870;2023-03-11T12:22:27;2.65;;;0.88;;
69150;SDS011;56257;52.196;13.870;2023-03-11T12:25:04;2.30;;;0.60;;
69150;SDS011;56257;52.196;13.870;2023-03-11T12:27:44;2.72;;;0.70;;
69150;SDS011;56257;52.196;13.870;2023-03-11T12:30:25;2.80;;;0.70;;
69150;SDS011;56257;52.196;13.870;2023-03-11T12:32:59;2.67;;;0.70;;
69150;SDS011;56257;52.196;13.870;2023-03-11T12:35:28;2.78;;;0.80;;
69150;SDS011;56257;52.196;13.870;2023-03-11T12:37:58;2.70;;;0.70;;
69150;SDS011;56257;52.196;13.870;2023-03-11T12:43:23;2.70;;;0.70;;
69150;SDS011;56257;52.196;13.870;2023-03-11T12:45:52;2.88;;;0.90;;
69150;SDS011;56257;52.196;13.870;2023-03-11T12:48:24;3.10;;;1.00;;
69150;SDS011;56257;52.196;13.870;2023-03-11T12:51:06;2.63;;;0.80;;
69150;SDS011;56257;52.196;13.870;2023-03-11T12:53:53;2.60;;;0.88;;
69150;SDS011;56257;52.196;13.870;2023-03-11T12:59:21;3.13;;;0.70;;
69150;SDS011;56257;52.196;13.870;2023-03-11T13:07:48;3.00;;;0.85;;
69150;SDS011;56257;52.196;13.870;2023-03-11T13:18:37;2.70;;;0.70;;
69150;SDS011;56257;52.196;13.870;2023-03-11T13:21:35;2.40;;;0.60;;
69150;SDS011;56257;52.196;13.870;2023-03-11T13:40:47;2.65;;;0.80;;
69150;SDS011;56257;52.196;13.870;2023-03-11T13:43:21;3.47;;;1.08;;
69150;SDS011;56257;52.196;13.870;2023-03-11T13:45:54;2.95;;;0.82;;
69150;SDS011;56257;52.196;13.870;2023-03-11T13:48:29;3.03;;;1.05;;
69150;SDS011;56257;52.196;13.870;2023-03-11T13:51:04;5.03;;;1.17;;
69150;SDS011;56257;52.196;13.870;2023-03-11T13:56:23;3.78;;;0.90;;
69150;SDS011;56257;52.196;13.870;2023-03-11T13:58:52;3.00;;;1.10;;
69150;SDS011;56257;52.196;13.870;2023-03-11T14:01:19;2.75;;;0.90;;
69150;SDS011;56257;52.196;13.870;2023-03-11T14:03:46;2.70;;;0.80;;
69150;SDS011;56257;52.196;13.870;2023-03-11T14:06:17;2.92;;;0.90;;
69150;SDS011;56257;52.196;13.870;2023-03-11T14:08:52;2.70;;;0.75;;
69150;SDS011;56257;52.196;13.870;2023-03-11T14:11:23;4.10;;;1.45;;
69150;SDS011;56257;52.196;13.870;2023-03-11T14:13:52;2.70;;;0.75;;
69150;SDS011;56257;52.196;13.870;2023-03-11T14:16:23;2.60;;;0.63;;
69150;SDS011;56257;52.196;13.870;2023-03-11T14:19:12;4.25;;;0.77;;
69150;SDS011;56257;52.196;13.870;2023-03-11T14:21:40;3.50;;;0.70;;
69150;SDS011;56257;52.196;13.870;2023-03-11T14:24:13;3.33;;;0.90;;
69150;SDS011;56257;52.196;13.870;2023-03-11T14:26:42;2.92;;;0.68;;
69150;SDS011;56257;52.196;13.870;2023-03-11T14:29:15;2.50;;;0.60;;
69150;SDS011;56257;52.196;13.870;2023-03-11T14:31:44;2.78;;;0.80;;
69150;SDS011;56257;52.196;13.870;2023-03-11T14:34:13;2.97;;;0.60;;
69150;SDS011;56257;52.196;13.870;2023-03-11T14:36:47;2.80;;;0.80;;
69150;SDS011;56257;52.196;13.870;2023-03-11T14:39:26;3.70;;;0.60;;
69150;SDS011;56257;52.196;13.870;2023-03-11T14:42:04;3.00;;;0.70;;
69150;SDS011;56257;52.196;13.870;2023-03-11T14:44:34;2.63;;;0.60;;
69150;SDS011;56257;52.196;13.870;2023-03-11T14:49:58;2.83;;;0.80;;
69150;SDS011;56257;52.196;13.870;2023-03-11T14:55:12;2.90;;;0.50;;
69150;SDS011;56257;52.196;13.870;2023-03-11T14:57:51;3.05;;;0.70;;
69150;SDS011;56257;52.196;13.870;2023-03-11T15:00:28;2.50;;;0.70;;
69150;SDS011;56257;52.196;13.870;2023-03-11T15:08:22;3.30;;;0.73;;
69150;SDS011;56257;52.196;13.870;2023-03-11T15:11:02;2.45;;;0.65;;
69150;SDS011;56257;52.196;13.870;2023-03-11T15:13:33;3.00;;;0.75;;
69150;SDS011;56257;52.196;13.870;2023-03-11T15:16:01;2.70;;;0.70;;
69150;SDS011;56257;52.196;13.870;2023-03-11T15:18:32;3.88;;;1.33;;
69150;SDS011;56257;52.196;13.870;2023-03-11T15:21:21;3.13;;;0.70;;
69150;SDS011;56257;52.196;13.870;2023-03-11T15:23:58;3.05;;;1.05;;
69150;SDS011;56257;52.196;13.870;2023-03-11T15:26:30;3.05;;;0.80;;
69150;SDS011;56257;52.196;13.870;2023-03-11T15:29:03;3.03;;;0.80;;
69150;SDS011;56257;52.196;13.870;2023-03-11T15:31:38;3.10;;;0.90;;
69150;SDS011;56257;52.196;13.870;2023-03-11T15:37:01;3.42;;;1.00;;
69150;SDS011;56257;52.196;13.870;2023-03-11T15:42:17;3.20;;;0.80;;
69150;SDS011;56257;52.196;13.870;2023-03-11T15:47:38;2.50;;;0.60;;
69150;SDS011;56257;52.196;13.870;2023-03-11T15:50:12;2.50;;;0.60;;
69150;SDS011;56257;52.196;13.870;2023-03-11T15:52:51;2.65;;;0.70;;
69150;SDS011;56257;52.196;13.870;2023-03-11T15:55:18;3.38;;;0.70;;
69150;SDS011;56257;52.196;13.870;2023-03-11T15:57:48;2.47;;;0.60;;
69150;SDS011;56257;52.196;13.870;2023-03-11T16:00:20;2.73;;;0.80;;
69150;SDS011;56257;52.196;13.870;2023-03-11T16:02:48;2.67;;;0.80;;
69150;SDS011;56257;52.196;13.870;2023-03-11T16:05:19;2.90;;;0.70;;
69150;SDS011;56257;52.196;13.870;2023-03-11T16:07:47;3.25;;;0.70;;
69150;SDS011;56257;52.196;13.870;2023-03-11T16:10:15;2.63;;;0.60;;
69150;SDS011;56257;52.196;13.870;2023-03-11T16:12:45;2.63;;;0.70;;
69150;SDS011;56257;52.196;13.870;2023-03-11T16:15:23;2.92;;;0.70;;
69150;SDS011;56257;52.196;13.870;2023-03-11T16:17:54;2.85;;;0.70;;
69150;SDS011;56257;52.196;13.870;2023-03-11T16:20:24;2.55;;;0.50;;
69150;SDS011;56257;52.196;13.870;2023-03-11T16:22:52;2.50;;;0.70;;
69150;SDS011;56257;52.196;13.870;2023-03-11T16:25:28;2.93;;;0.50;;